Time;durP1;ratioP1;P1;durP2;ratioP2;P2;SDS_P1;SDS_P2;PMS_P1;PMS_P2;Temp;Humidity;BMP_temperature;BMP_pressure;BME280_temperature;BME280_humidity;BME280_pressure;Samples;Min_cycle;Max_cycle;Signal;HPM_P1;HPM_P2
2023/09/11 00:02:19;;;;;;;5.80;4.28;;;20.70;99.90;;;;;;5246932;28;20516;-75
2023/09/11 00:04:49;;;;;;;4.80;4.40;;;20.60;99.90;;;;;;5248634;28;20021;-75
2023/09/11 00:07:20;;;;;;;4.60;4.20;;;20.70;99.90;;;;;;5248918;28;20107;-75
2023/09/11 00:09:51;;;;;;;7.40;4.68;;;20.70;99.90;;;;;;5247517;28;20025;-74
2023/09/11 00:12:22;;;;;;;7.18;4.25;;;20.70;99.90;;;;;;5248451;28;20396;-74
2023/09/11 00:14:53;;;;;;;10.15;4.38;;;20.60;99.90;;;;;;5246848;28;20419;-75
2023/09/11 00:17:24;;;;;;;6.60;4.70;;;20.50;99.90;;;;;;5247275;28;20055;-74
2023/09/11 00:19:55;;;;;;;5.57;4.88;;;20.70;99.90;;;;;;5247302;28;20015;-75
2023/09/11 00:22:26;;;;;;;6.95;4.22;;;20.70;99.90;;;;;;5248496;28;20043;-75
2023/09/11 00:24:56;;;;;;;7.35;4.88;;;20.80;99.90;;;;;;5246588;28;20031;-74
2023/09/11 00:27:27;;;;;;;6.07;4.85;;;20.70;99.90;;;;;;5225581;28;20044;-74
2023/09/11 00:29:58;;;;;;;5.43;4.93;;;20.70;99.90;;;;;;5225895;28;20029;-74
2023/09/11 00:32:29;;;;;;;6.53;5.07;;;20.70;99.90;;;;;;5226522;28;20052;-75
2023/09/11 00:35:00;;;;;;;5.40;4.88;;;20.70;99.90;;;;;;5228631;28;20028;-74
2023/09/11 00:37:31;;;;;;;7.70;4.90;;;20.60;99.90;;;;;;5248365;28;20472;-75
2023/09/11 00:40:03;;;;;;;9.30;5.18;;;20.70;99.90;;;;;;5246753;28;20056;-75
2023/09/11 00:42:34;;;;;;;6.28;4.95;;;20.70;99.90;;;;;;5246870;28;20052;-75
2023/09/11 00:45:06;;;;;;;5.93;5.22;;;20.70;99.90;;;;;;5247778;28;20032;-75
2023/09/11 00:47:38;;;;;;;6.03;5.53;;;20.60;99.90;;;;;;5246645;28;20029;-75
2023/09/11 00:50:10;;;;;;;9.05;4.72;;;20.70;99.90;;;;;;5244082;28;20025;-75
2023/09/11 00:52:42;;;;;;;6.47;4.93;;;20.80;99.90;;;;;;5227240;28;20469;-75
2023/09/11 00:55:13;;;;;;;6.10;5.03;;;20.80;99.90;;;;;;5225636;28;20032;-75
2023/09/11 00:57:44;;;;;;;5.00;4.60;;;20.70;99.90;;;;;;5232062;28;20020;-75
2023/09/11 01:00:15;;;;;;;5.75;5.22;;;20.70;99.90;;;;;;5247336;28;20067;-75
2023/09/11 01:02:47;;;;;;;10.57;4.65;;;20.70;99.90;;;;;;5246295;28;20524;-75
2023/09/11 01:05:18;;;;;;;7.85;4.68;;;20.50;99.90;;;;;;5247883;28;20021;-75
2023/09/11 01:07:49;;;;;;;6.68;4.28;;;20.40;99.90;;;;;;5246803;28;20031;-75
2023/09/11 01:10:20;;;;;;;8.63;4.50;;;20.50;99.90;;;;;;5247715;28;20037;-75
2023/09/11 01:12:51;;;;;;;6.22;4.50;;;20.40;99.90;;;;;;5247674;28;20115;-75
2023/09/11 01:15:25;;;;;;;7.45;4.93;;;20.60;99.90;;;;;;5247366;28;20154;-75
2023/09/11 01:18:11;;;;;;;6.18;4.93;;;20.60;99.90;;;;;;5248059;28;20024;-75
2023/09/11 01:21:09;;;;;;;7.57;5.15;;;20.60;99.90;;;;;;5246685;28;20037;-75
2023/09/11 01:24:04;;;;;;;10.55;4.40;;;20.70;99.90;;;;;;5246401;28;20020;-75
2023/09/11 01:27:22;;;;;;;5.05;4.22;;;20.50;99.90;;;;;;5239224;28;20072;-75
2023/09/11 01:29:56;;;;;;;6.57;3.72;;;20.60;99.90;;;;;;5247081;28;20199;-75
2023/09/11 01:32:29;;;;;;;8.77;4.50;;;20.60;99.90;;;;;;5246803;28;20020;-73
2023/09/11 01:34:59;;;;;;;8.45;3.95;;;20.50;99.90;;;;;;5263083;28;20590;-74
2023/09/11 01:37:31;;;;;;;5.60;4.32;;;20.50;99.90;;;;;;5247483;28;20111;-74
2023/09/11 01:40:02;;;;;;;5.95;4.15;;;20.60;99.90;;;;;;5251090;28;20024;-74
2023/09/11 01:42:46;;;;;;;6.05;4.25;;;20.60;99.90;;;;;;5250340;28;20041;-74
2023/09/11 01:45:18;;;;;;;9.27;4.15;;;20.50;99.90;;;;;;5251754;28;20028;-74
2023/09/11 01:47:51;;;;;;;5.68;3.92;;;20.50;99.90;;;;;;5251432;28;20027;-74
2023/09/11 01:50:23;;;;;;;6.47;4.07;;;20.50;99.90;;;;;;5251391;28;20037;-74
2023/09/11 01:52:55;;;;;;;4.95;4.25;;;20.40;99.90;;;;;;5250647;28;20119;-74
2023/09/11 01:55:26;;;;;;;4.82;4.03;;;20.40;99.90;;;;;;5251095;28;20039;-74
2023/09/11 01:57:57;;;;;;;5.78;5.00;;;20.50;99.90;;;;;;5250170;28;20484;-74
2023/09/11 02:00:28;;;;;;;7.05;4.35;;;20.30;99.90;;;;;;5242163;28;20025;-74
2023/09/11 02:02:59;;;;;;;6.10;4.80;;;20.20;99.90;;;;;;5245279;28;20028;-74
2023/09/11 02:05:30;;;;;;;5.25;4.68;;;20.20;99.90;;;;;;5241223;28;20029;-74
2023/09/11 02:08:01;;;;;;;4.95;4.35;;;20.20;99.90;;;;;;5249539;28;20058;-75
2023/09/11 02:10:32;;;;;;;14.55;6.20;;;20.10;99.90;;;;;;5249300;28;20439;-73
2023/09/11 02:13:03;;;;;;;9.88;6.22;;;20.20;99.90;;;;;;5250432;28;20098;-74
2023/09/11 02:15:33;;;;;;;6.88;6.10;;;20.10;99.90;;;;;;5238285;28;20074;-74
2023/09/11 02:18:04;;;;;;;6.10;5.50;;;20.10;99.90;;;;;;5250762;28;20069;-73
2023/09/11 02:20:35;;;;;;;5.78;5.20;;;20.10;99.90;;;;;;5248652;28;20491;-74
2023/09/11 02:23:06;;;;;;;5.10;4.60;;;20.20;99.90;;;;;;5248588;28;20050;-74
2023/09/11 02:25:37;;;;;;;6.47;4.38;;;20.40;99.90;;;;;;5241026;28;20038;-74
2023/09/11 02:28:08;;;;;;;7.10;4.40;;;20.30;99.90;;;;;;5250629;28;20062;-74
2023/09/11 02:30:39;;;;;;;9.98;5.15;;;20.40;99.90;;;;;;5249529;28;20082;-74
2023/09/11 02:33:10;;;;;;;5.07;4.57;;;20.30;99.90;;;;;;5250744;28;20456;-73
2023/09/11 02:35:41;;;;;;;5.72;4.45;;;20.40;99.90;;;;;;5245284;28;20040;-74
2023/09/11 02:38:13;;;;;;;4.95;4.45;;;20.40;99.90;;;;;;5228845;28;20385;-74
2023/09/11 02:40:43;;;;;;;5.43;4.07;;;20.40;99.90;;;;;;5233169;28;20633;-74
2023/09/11 02:43:14;;;;;;;6.00;4.78;;;20.20;99.90;;;;;;5250376;28;20021;-74
2023/09/11 02:45:45;;;;;;;6.10;4.60;;;20.10;99.90;;;;;;5250472;28;20059;-74
2023/09/11 02:48:16;;;;;;;7.35;4.20;;;20.20;99.90;;;;;;5248416;28;20127;-74
2023/09/11 02:50:47;;;;;;;7.05;5.18;;;20.20;99.90;;;;;;5249260;28;20070;-74
2023/09/11 02:53:18;;;;;;;5.40;4.97;;;20.00;99.90;;;;;;5250142;28;20020;-75
2023/09/11 02:55:49;;;;;;;6.18;4.57;;;19.90;99.90;;;;;;5250230;28;20760;-75
2023/09/11 02:58:20;;;;;;;6.53;5.03;;;19.90;99.90;;;;;;5249294;28;20107;-75
2023/09/11 03:00:51;;;;;;;6.30;4.20;;;19.90;99.90;;;;;;5249976;28;20036;-75
2023/09/11 03:03:21;;;;;;;5.50;4.15;;;20.00;99.90;;;;;;5248650;28;20047;-74
2023/09/11 03:06:02;;;;;;;4.20;3.75;;;19.90;99.90;;;;;;5249875;28;20029;-74
2023/09/11 03:08:33;;;;;;;7.35;4.00;;;19.90;99.90;;;;;;5250241;28;20028;-75
2023/09/11 03:11:07;;;;;;;4.55;4.13;;;20.00;99.90;;;;;;5249630;28;20495;-75
2023/09/11 03:13:38;;;;;;;5.68;4.32;;;20.10;99.90;;;;;;5249753;28;20027;-75
2023/09/11 03:16:16;;;;;;;6.88;4.15;;;19.90;99.90;;;;;;5249712;28;20070;-75
2023/09/11 03:18:47;;;;;;;5.20;3.58;;;19.90;99.90;;;;;;5249320;28;20021;-75
2023/09/11 03:21:18;;;;;;;9.88;4.03;;;20.00;99.90;;;;;;5250099;28;20025;-74
2023/09/11 03:23:49;;;;;;;6.30;3.95;;;19.80;99.90;;;;;;5249607;28;20024;-74
2023/09/11 03:26:19;;;;;;;7.18;3.88;;;19.90;99.90;;;;;;5238113;28;20028;-75
2023/09/11 03:28:50;;;;;;;7.38;3.63;;;19.80;99.90;;;;;;5237158;28;20071;-74
2023/09/11 03:31:22;;;;;;;5.20;3.17;;;19.70;99.90;;;;;;5249312;28;20051;-75
2023/09/11 03:33:52;;;;;;;4.93;3.35;;;19.70;99.90;;;;;;5249388;28;20029;-75
2023/09/11 03:36:23;;;;;;;3.88;3.42;;;19.80;99.90;;;;;;5249030;28;20086;-75
2023/09/11 03:38:54;;;;;;;3.85;3.53;;;19.60;99.90;;;;;;5249477;28;20021;-75
2023/09/11 03:41:25;;;;;;;7.25;3.60;;;19.60;99.90;;;;;;5248869;28;20048;-75
2023/09/11 03:43:56;;;;;;;5.55;3.35;;;19.70;99.90;;;;;;5248951;28;20040;-75
2023/09/11 03:46:27;;;;;;;4.63;3.38;;;19.90;99.90;;;;;;5248795;28;20038;-75
2023/09/11 03:48:58;;;;;;;5.20;3.17;;;19.80;99.90;;;;;;5248564;28;20473;-75
2023/09/11 03:51:29;;;;;;;7.88;3.58;;;19.70;99.90;;;;;;5248972;28;20396;-75
2023/09/11 03:54:00;;;;;;;8.05;3.67;;;19.70;99.90;;;;;;5249009;28;20103;-75
2023/09/11 03:56:31;;;;;;;6.05;3.13;;;19.80;99.90;;;;;;5247578;28;20132;-75
2023/09/11 03:59:02;;;;;;;6.55;3.58;;;19.80;99.90;;;;;;5249000;28;20091;-74
2023/09/11 04:01:33;;;;;;;6.43;3.83;;;19.80;99.90;;;;;;5248511;28;20399;-75
2023/09/11 04:04:04;;;;;;;7.38;3.85;;;19.80;99.90;;;;;;5248926;28;20028;-75
2023/09/11 04:06:35;;;;;;;4.88;3.55;;;19.90;99.90;;;;;;5248712;28;20095;-75
2023/09/11 04:09:06;;;;;;;3.85;3.42;;;20.00;99.90;;;;;;5248756;28;20488;-75
2023/09/11 04:11:36;;;;;;;5.70;3.58;;;20.00;99.90;;;;;;5248549;28;20050;-74
2023/09/11 04:14:07;;;;;;;5.28;4.10;;;20.00;99.90;;;;;;5248751;28;20537;-74
2023/09/11 04:16:38;;;;;;;6.78;3.47;;;20.10;99.90;;;;;;5247095;28;20033;-74
2023/09/11 04:19:09;;;;;;;6.78;3.67;;;20.30;99.90;;;;;;5247209;28;20024;-74
2023/09/11 04:21:40;;;;;;;6.53;4.18;;;20.40;99.90;;;;;;5248605;28;20029;-74
2023/09/11 04:24:13;;;;;;;5.60;4.25;;;20.30;99.90;;;;;;5248648;28;20146;-75
2023/09/11 04:26:45;;;;;;;7.65;4.72;;;20.30;99.90;;;;;;5248329;28;20091;-75
2023/09/11 04:29:16;;;;;;;4.97;4.40;;;20.50;99.90;;;;;;5247198;28;20035;-75
2023/09/11 04:31:47;;;;;;;5.10;4.60;;;20.40;99.90;;;;;;5247935;28;20032;-75
2023/09/11 04:34:18;;;;;;;5.07;4.32;;;20.40;99.90;;;;;;5247255;28;20489;-76
2023/09/11 04:36:49;;;;;;;6.78;4.50;;;20.50;99.90;;;;;;5248532;28;20033;-75
2023/09/11 04:39:22;;;;;;;4.35;3.97;;;20.70;99.90;;;;;;5247961;28;20087;-75
2023/09/11 04:41:53;;;;;;;4.78;4.28;;;20.80;99.90;;;;;;5245852;28;20048;-75
2023/09/11 04:44:24;;;;;;;5.57;5.07;;;20.90;99.90;;;;;;5244114;28;20031;-75
2023/09/11 04:46:55;;;;;;;6.88;6.07;;;20.90;99.90;;;;;;5246813;28;20052;-75
2023/09/11 04:49:25;;;;;;;6.45;5.78;;;21.10;99.90;;;;;;5246908;28;20077;-75
2023/09/11 04:51:56;;;;;;;7.88;5.70;;;21.20;99.90;;;;;;5247778;28;20033;-75
2023/09/11 04:54:27;;;;;;;6.47;5.97;;;21.10;99.90;;;;;;5248336;28;20052;-76
2023/09/11 04:56:58;;;;;;;9.13;5.68;;;21.00;99.90;;;;;;5247986;28;20039;-75
2023/09/11 04:59:29;;;;;;;6.93;6.25;;;21.00;99.90;;;;;;5247695;28;20024;-75
2023/09/11 05:02:00;;;;;;;6.68;5.25;;;21.10;99.90;;;;;;5248090;28;20023;-75
2023/09/11 05:04:30;;;;;;;10.63;6.20;;;21.10;99.90;;;;;;5247860;28;20024;-75
2023/09/11 05:07:02;;;;;;;7.93;6.03;;;21.20;99.90;;;;;;5247993;28;20020;-74
2023/09/11 05:09:33;;;;;;;7.25;6.65;;;21.30;99.90;;;;;;5247784;28;20021;-75
2023/09/11 05:12:05;;;;;;;8.40;7.05;;;21.30;99.90;;;;;;5247788;28;20039;-75
2023/09/11 05:14:35;;;;;;;6.93;6.10;;;21.30;99.90;;;;;;5247141;28;20032;-75
2023/09/11 05:17:06;;;;;;;7.70;6.90;;;21.30;99.90;;;;;;5241933;28;20022;-75
2023/09/11 05:19:37;;;;;;;6.72;6.13;;;21.20;99.90;;;;;;5238730;28;20060;-75
2023/09/11 05:22:08;;;;;;;10.38;6.18;;;21.40;99.90;;;;;;5247808;28;20029;-75
2023/09/11 05:24:39;;;;;;;7.45;6.55;;;21.30;99.90;;;;;;5247672;28;20046;-75
2023/09/11 05:27:10;;;;;;;7.45;6.68;;;21.30;99.90;;;;;;5247898;28;20029;-75
2023/09/11 05:29:41;;;;;;;8.00;7.32;;;21.30;99.90;;;;;;5247927;28;20457;-75
2023/09/11 05:32:12;;;;;;;8.50;7.63;;;21.40;99.90;;;;;;5247605;28;20032;-75
2023/09/11 05:34:42;;;;;;;9.90;8.18;;;21.40;99.90;;;;;;5246475;28;20461;-74
2023/09/11 05:37:13;;;;;;;10.35;8.45;;;21.40;99.90;;;;;;5245719;28;20029;-74
2023/09/11 05:39:45;;;;;;;10.40;8.52;;;21.70;99.90;;;;;;5247270;28;20028;-75
2023/09/11 05:42:16;;;;;;;10.35;7.75;;;21.80;99.90;;;;;;5246800;28;20102;-75
2023/09/11 05:44:48;;;;;;;8.00;7.35;;;21.70;99.90;;;;;;5226556;28;20057;-74
2023/09/11 05:47:19;;;;;;;7.80;7.00;;;21.80;99.90;;;;;;5225351;28;20021;-75
2023/09/11 05:49:50;;;;;;;10.50;7.57;;;21.80;99.90;;;;;;5225356;28;20032;-76
2023/09/11 05:52:21;;;;;;;8.57;7.70;;;21.70;99.90;;;;;;5225346;28;20033;-75
2023/09/11 05:54:52;;;;;;;8.07;7.40;;;21.70;99.90;;;;;;5225705;28;20032;-75
2023/09/11 05:57:23;;;;;;;7.80;7.20;;;21.80;99.90;;;;;;5226697;28;20063;-75
2023/09/11 05:59:54;;;;;;;7.97;7.32;;;21.90;99.90;;;;;;5225420;28;20032;-75
2023/09/11 06:02:24;;;;;;;8.75;7.82;;;21.90;99.90;;;;;;5226583;28;20021;-75
2023/09/11 06:04:55;;;;;;;7.85;7.22;;;21.80;99.90;;;;;;5226718;28;20021;-75
2023/09/11 06:07:26;;;;;;;8.57;7.53;;;21.80;99.90;;;;;;5226537;28;20060;-74
2023/09/11 06:09:57;;;;;;;7.85;7.25;;;21.90;99.90;;;;;;5712234;22;20020;-74
2023/09/11 06:12:30;;;;;;;7.80;7.18;;;21.90;99.90;;;;;;5267751;28;20036;-75
2023/09/11 06:15:04;;;;;;;9.20;7.82;;;22.00;99.90;;;;;;5268471;28;20028;-75
2023/09/11 06:17:34;;;;;;;7.57;6.65;;;22.20;99.90;;;;;;5268319;28;20097;-76
2023/09/11 06:20:13;;;;;;;7.93;6.85;;;22.50;99.90;;;;;;5266359;28;20042;-75
2023/09/11 06:22:44;;;;;;;6.22;5.65;;;22.60;99.90;;;;;;5249711;28;20033;-75
2023/09/11 06:25:15;;;;;;;5.47;4.68;;;22.70;99.90;;;;;;5267003;28;20027;-75
2023/09/11 06:27:46;;;;;;;8.15;4.22;;;22.60;99.90;;;;;;5270857;28;20396;-75
2023/09/11 06:30:17;;;;;;;6.60;4.32;;;22.70;99.90;;;;;;5270574;28;20035;-75
2023/09/11 06:32:48;;;;;;;7.57;3.72;;;23.00;99.90;;;;;;5271461;28;20098;-75
2023/09/11 06:35:19;;;;;;;7.15;3.67;;;23.00;99.90;;;;;;5270541;28;20067;-75
2023/09/11 06:37:50;;;;;;;4.47;3.50;;;23.10;99.90;;;;;;5270309;28;20020;-75
2023/09/11 06:40:21;;;;;;;4.07;3.53;;;23.20;99.90;;;;;;5271286;28;20475;-75
2023/09/11 06:42:51;;;;;;;3.33;3.03;;;23.40;99.90;;;;;;5271895;28;20476;-75
2023/09/11 06:45:22;;;;;;;5.65;4.10;;;23.40;99.90;;;;;;5271182;28;20103;-75
2023/09/11 06:47:53;;;;;;;4.13;3.83;;;23.50;99.90;;;;;;5271486;28;20020;-75
2023/09/11 06:50:26;;;;;;;8.52;4.68;;;23.60;99.90;;;;;;5269830;28;20444;-76
2023/09/11 06:52:58;;;;;;;7.53;4.57;;;23.70;99.90;;;;;;5259259;28;20454;-77
2023/09/11 06:55:29;;;;;;;6.13;4.50;;;23.80;99.90;;;;;;5271649;28;20024;-78
2023/09/11 06:58:03;;;;;;;5.57;5.07;;;24.00;99.90;;;;;;5270192;28;20123;-78
2023/09/11 07:00:38;;;;;;;8.93;4.32;;;24.00;99.90;;;;;;5263198;28;20081;-75
2023/09/11 07:03:13;;;;;;;5.47;4.18;;;24.00;99.90;;;;;;5268125;28;20016;-76
2023/09/11 07:05:44;;;;;;;3.90;3.40;;;24.00;99.90;;;;;;5258290;28;20418;-76
2023/09/11 07:08:15;;;;;;;3.38;3.05;;;24.20;99.90;;;;;;5249162;28;20021;-76
2023/09/11 07:10:50;;;;;;;5.07;3.15;;;24.40;99.90;;;;;;5249027;28;20442;-78
2023/09/11 07:13:21;;;;;;;5.75;2.83;;;24.40;99.90;;;;;;5250254;28;20086;-76
2023/09/11 07:16:00;;;;;;;4.07;2.95;;;24.50;99.90;;;;;;5250370;28;20024;-75
2023/09/11 07:18:31;;;;;;;5.88;3.88;;;24.10;99.90;;;;;;5249128;28;20020;-76
2023/09/11 07:21:02;;;;;;;5.20;3.20;;;23.80;99.90;;;;;;5249059;28;20031;-77
2023/09/11 07:23:33;;;;;;;6.13;3.70;;;24.10;99.90;;;;;;5248515;28;20025;-76
2023/09/11 07:26:04;;;;;;;3.78;3.45;;;24.10;99.90;;;;;;5248624;28;20059;-76
2023/09/11 07:28:55;;;;;;;3.72;3.28;;;24.20;99.90;;;;;;5248861;28;20056;-76
2023/09/11 07:31:26;;;;;;;3.70;3.15;;;24.30;99.90;;;;;;5247823;28;20040;-76
2023/09/11 07:33:58;;;;;;;5.22;3.20;;;24.10;99.90;;;;;;5249982;28;20035;-76
2023/09/11 07:36:29;;;;;;;4.20;3.17;;;23.90;99.90;;;;;;5249390;28;20401;-76
2023/09/11 07:39:00;;;;;;;5.97;3.05;;;24.00;99.90;;;;;;5249422;28;20032;-78
2023/09/11 07:41:31;;;;;;;6.90;3.92;;;24.30;99.90;;;;;;5249238;28;20383;-76
2023/09/11 07:44:02;;;;;;;5.13;4.63;;;24.40;99.90;;;;;;5250059;28;20021;-76
2023/09/11 07:46:32;;;;;;;6.82;5.95;;;24.50;99.90;;;;;;5249083;28;20353;-76
2023/09/11 08:01:25;;;;;;;6.35;5.85;;;24.40;99.90;;;;;;5308999;27;20999;-77
2023/09/11 08:03:56;;;;;;;6.40;5.90;;;25.00;99.90;;;;;;5308644;28;20110;-78
2023/09/11 08:06:27;;;;;;;5.90;5.50;;;25.00;99.90;;;;;;5308571;28;20015;-78
2023/09/11 08:09:03;;;;;;;4.78;4.43;;;25.10;99.90;;;;;;5308530;28;20030;-77
2023/09/11 08:11:39;;;;;;;4.93;4.47;;;24.80;99.90;;;;;;5308599;28;20019;-78
2023/09/11 08:14:10;;;;;;;5.75;5.28;;;25.10;99.90;;;;;;5308859;28;20019;-78
2023/09/11 08:16:41;;;;;;;5.95;5.25;;;25.30;99.90;;;;;;5290014;28;20419;-78
2023/09/11 08:19:12;;;;;;;5.10;4.57;;;25.20;99.90;;;;;;5308560;28;20038;-78
2023/09/11 08:21:43;;;;;;;4.97;4.57;;;25.50;99.90;;;;;;5290342;28;20028;-78
2023/09/11 08:24:14;;;;;;;5.47;4.97;;;25.50;99.90;;;;;;5287026;28;20394;-77
2023/09/11 08:26:45;;;;;;;7.80;4.47;;;25.20;99.90;;;;;;5268731;28;20482;-77
2023/09/11 08:29:18;;;;;;;5.70;4.45;;;25.10;99.90;;;;;;5286245;28;20089;-77
2023/09/11 08:31:49;;;;;;;5.85;4.18;;;24.80;99.90;;;;;;5268502;28;20027;-77
2023/09/11 08:34:20;;;;;;;4.93;4.30;;;25.20;99.90;;;;;;5268527;28;20077;-78
2023/09/11 08:36:50;;;;;;;6.32;4.82;;;25.10;99.90;;;;;;5286809;28;20409;-78
2023/09/11 08:39:21;;;;;;;5.22;4.82;;;25.50;99.90;;;;;;5286773;28;20062;-79
2023/09/11 08:41:54;;;;;;;5.68;4.93;;;25.50;99.90;;;;;;5286485;28;20024;-78
2023/09/11 08:44:24;;;;;;;6.47;5.97;;;25.70;99.90;;;;;;5268442;28;20475;-77
2023/09/11 08:46:58;;;;;;;6.30;5.70;;;25.70;99.90;;;;;;5268540;28;20034;-78
2023/09/11 08:49:42;;;;;;;4.93;4.43;;;25.30;99.90;;;;;;5286306;28;20053;-80
2023/09/11 08:52:15;;;;;;;5.45;3.90;;;25.10;99.90;;;;;;5268160;28;20055;-76
2023/09/11 08:54:53;;;;;;;7.10;4.47;;;24.90;99.90;;;;;;5286219;28;20041;-77
2023/09/11 08:57:26;;;;;;;5.60;4.72;;;25.20;99.90;;;;;;5286447;28;20028;-77
2023/09/11 09:00:06;;;;;;;6.00;4.70;;;25.30;99.90;;;;;;5285511;28;20051;-78
2023/09/11 09:02:38;;;;;;;5.45;5.05;;;25.60;99.90;;;;;;5272403;28;20024;-77
2023/09/11 09:05:10;;;;;;;5.65;4.60;;;26.00;99.90;;;;;;5272103;28;20031;-76
2023/09/11 09:07:43;;;;;;;5.22;4.85;;;25.90;99.90;;;;;;5273004;28;20024;-77
2023/09/11 09:10:16;;;;;;;6.63;4.95;;;25.90;99.90;;;;;;5271816;28;20035;-80
2023/09/11 09:12:47;;;;;;;4.95;4.05;;;25.30;99.90;;;;;;5271944;28;20024;-76
2023/09/11 09:15:20;;;;;;;8.38;4.32;;;25.00;99.90;;;;;;5272025;28;20028;-79
2023/09/11 09:17:51;;;;;;;5.18;4.75;;;25.00;99.90;;;;;;5272387;28;20383;-77
2023/09/11 09:20:22;;;;;;;4.55;4.20;;;25.00;99.90;;;;;;5271737;28;20031;-77
2023/09/11 09:22:58;;;;;;;5.28;4.00;;;24.80;99.90;;;;;;5271885;28;20395;-78
2023/09/11 09:25:30;;;;;;;5.97;3.92;;;24.80;99.90;;;;;;5271557;28;20027;-78
2023/09/11 09:28:01;;;;;;;7.45;4.22;;;25.10;99.90;;;;;;5253958;28;20024;-78
2023/09/11 09:30:32;;;;;;;9.98;4.28;;;25.10;99.90;;;;;;5271675;28;20048;-77
2023/09/11 09:33:03;;;;;;;5.25;4.38;;;25.00;99.90;;;;;;5271910;28;20016;-76
2023/09/11 09:35:35;;;;;;;4.68;3.95;;;24.90;99.90;;;;;;5271351;28;20028;-79
2023/09/11 09:38:06;;;;;;;4.15;3.75;;;24.80;99.90;;;;;;5253729;28;20031;-81
2023/09/11 09:40:38;;;;;;;4.45;3.42;;;24.60;99.90;;;;;;5271583;28;20029;-80
2023/09/11 09:43:15;;;;;;;4.38;3.08;;;24.70;99.90;;;;;;5271405;28;20098;-77
2023/09/11 09:45:47;;;;;;;219.57;19.25;;;24.60;99.90;;;;;;5271739;28;20042;-79
2023/09/11 09:48:20;;;;;;;50.90;7.28;;;24.70;99.90;;;;;;5271400;28;20099;-79
2023/09/11 09:50:58;;;;;;;8.85;3.70;;;24.90;99.90;;;;;;5271228;28;20483;-81
2023/09/11 09:53:41;;;;;;;14.40;4.57;;;24.70;99.90;;;;;;5271457;28;20028;-81
2023/09/11 09:56:13;;;;;;;4.18;3.50;;;24.80;99.90;;;;;;5271672;28;20031;-80
2023/09/11 09:58:45;;;;;;;5.20;3.85;;;24.60;99.90;;;;;;5252967;28;20036;-80
2023/09/11 10:01:17;;;;;;;6.07;3.22;;;24.70;99.90;;;;;;5270988;28;20040;-78
2023/09/11 10:03:53;;;;;;;6.35;3.30;;;24.60;99.90;;;;;;5252822;28;20137;-80
2023/09/11 10:06:31;;;;;;;4.18;3.05;;;24.50;99.90;;;;;;5270974;28;20035;-79
2023/09/11 10:09:13;;;;;;;5.32;3.25;;;24.60;99.90;;;;;;5252846;28;20032;-79
2023/09/11 10:11:44;;;;;;;3.25;2.85;;;24.50;99.90;;;;;;5252400;28;20526;-81
2023/09/11 10:14:17;;;;;;;5.03;2.72;;;24.60;99.90;;;;;;5269645;28;20052;-81
2023/09/11 10:16:49;;;;;;;4.68;3.03;;;24.60;99.90;;;;;;5252631;28;20024;-79
2023/09/11 10:19:21;;;;;;;4.25;2.80;;;24.50;99.90;;;;;;5270364;28;20036;-78
2023/09/11 10:21:52;;;;;;;4.43;3.25;;;24.80;99.90;;;;;;5270409;28;20020;-80
2023/09/11 10:24:23;;;;;;;3.45;3.15;;;24.80;99.90;;;;;;5270629;28;20028;-79
2023/09/11 10:27:00;;;;;;;5.65;3.65;;;24.60;99.90;;;;;;5252063;28;20141;-80
2023/09/11 10:29:48;;;;;;;4.60;3.67;;;24.70;99.90;;;;;;5249415;28;20056;-78
2023/09/11 10:32:26;;;;;;;7.50;3.22;;;24.70;99.90;;;;;;5231402;28;20070;-81
2023/09/11 10:34:57;;;;;;;4.53;2.83;;;24.60;99.90;;;;;;5231459;28;20028;-79
2023/09/11 10:37:31;;;;;;;3.83;3.22;;;24.80;99.90;;;;;;5249399;28;20379;-79
2023/09/11 10:40:04;;;;;;;4.63;3.92;;;25.00;99.90;;;;;;5249279;28;20078;-78
2023/09/11 10:42:35;;;;;;;5.10;4.05;;;25.40;99.90;;;;;;5249152;28;20028;-81
2023/09/11 10:45:24;;;;;;;7.45;4.25;;;25.20;99.90;;;;;;5247963;28;20028;-79
2023/09/11 10:47:55;;;;;;;3.58;3.25;;;25.00;99.90;;;;;;5231347;28;20119;-81
2023/09/11 10:50:32;;;;;;;3.88;3.58;;;25.00;99.90;;;;;;5231045;28;20511;-78
2023/09/11 10:53:05;;;;;;;5.55;3.92;;;25.40;99.90;;;;;;5249083;28;20020;-81
2023/09/11 10:55:36;;;;;;;5.78;4.10;;;25.50;99.90;;;;;;5231050;28;20086;-80
2023/09/11 10:58:07;;;;;;;4.20;3.72;;;25.50;99.90;;;;;;5248986;28;20021;-79
2023/09/11 11:00:38;;;;;;;4.88;3.72;;;25.70;99.90;;;;;;5248592;28;20157;-80
2023/09/11 11:03:15;;;;;;;4.20;3.90;;;25.30;99.90;;;;;;5248937;28;20024;-79
2023/09/11 11:05:47;;;;;;;3.80;3.50;;;25.50;99.90;;;;;;5230820;28;20029;-79
2023/09/11 11:08:18;;;;;;;4.15;3.78;;;25.40;99.90;;;;;;5248649;28;20021;-79
2023/09/11 11:10:56;;;;;;;4.03;3.65;;;25.00;99.90;;;;;;5248445;28;20024;-81
2023/09/11 11:13:28;;;;;;;4.03;3.70;;;25.10;99.90;;;;;;5248619;28;20028;-82
2023/09/11 11:16:20;;;;;;;4.45;3.83;;;25.30;99.90;;;;;;5248637;28;20064;-81
2023/09/11 11:18:52;;;;;;;3.97;3.33;;;25.20;99.90;;;;;;5248755;28;20476;-80
2023/09/11 11:21:23;;;;;;;5.30;3.38;;;25.30;99.90;;;;;;5248495;28;20020;-81
2023/09/11 11:23:58;;;;;;;3.88;3.53;;;25.10;99.90;;;;;;5248122;28;20104;-81
2023/09/11 11:26:31;;;;;;;5.68;3.65;;;25.20;99.90;;;;;;5248410;28;20085;-80
2023/09/11 11:29:02;;;;;;;3.00;2.80;;;25.20;99.90;;;;;;5248377;28;20038;-80
2023/09/11 11:31:34;;;;;;;3.20;2.97;;;25.10;99.90;;;;;;5230460;28;20028;-81
2023/09/11 11:34:06;;;;;;;3.90;3.47;;;25.10;99.90;;;;;;5230528;28;20021;-79
2023/09/11 11:36:40;;;;;;;3.90;3.42;;;25.10;99.90;;;;;;5248665;28;20028;-81
2023/09/11 11:39:10;;;;;;;3.42;3.17;;;25.10;99.90;;;;;;5248357;28;20112;-78
2023/09/11 11:41:42;;;;;;;3.42;3.13;;;25.10;99.90;;;;;;5248300;28;20100;-79
2023/09/11 11:44:14;;;;;;;4.30;3.47;;;25.00;99.90;;;;;;5248335;28;20031;-80
2023/09/11 11:46:45;;;;;;;4.13;2.90;;;24.90;99.90;;;;;;5248316;28;20030;-80
2023/09/11 11:52:03;;;;;;;4.20;3.80;;;25.10;99.90;;;;;;5499241;23;20055;-78
2023/09/11 11:54:37;;;;;;;3.58;3.35;;;25.00;99.90;;;;;;5166199;28;20014;-81
2023/09/11 11:57:08;;;;;;;3.78;3.53;;;25.00;99.90;;;;;;5164853;28;20085;-80
2023/09/11 11:59:41;;;;;;;3.70;3.22;;;24.90;99.90;;;;;;5164816;28;20065;-80
2023/09/11 12:02:28;;;;;;;3.60;3.38;;;24.90;99.90;;;;;;5166094;28;20038;-81
2023/09/11 12:04:59;;;;;;;4.05;3.58;;;24.80;99.90;;;;;;5164764;28;20438;-80
2023/09/11 12:07:33;;;;;;;3.50;3.20;;;25.30;99.90;;;;;;5166160;28;20022;-80
2023/09/11 12:10:09;;;;;;;3.97;3.75;;;25.20;99.90;;;;;;5144537;28;20047;-80
2023/09/11 12:12:44;;;;;;;3.60;3.30;;;25.00;99.90;;;;;;5150040;28;20054;-79
2023/09/11 12:15:16;;;;;;;5.68;3.70;;;24.80;99.90;;;;;;5166063;28;20034;-77
2023/09/11 12:17:49;;;;;;;4.55;3.70;;;24.80;99.90;;;;;;5165949;28;20022;-79
2023/09/11 12:20:22;;;;;;;4.53;4.07;;;25.10;99.90;;;;;;5164512;28;20038;-80
2023/09/11 12:22:53;;;;;;;3.70;3.40;;;25.20;99.90;;;;;;5166035;28;20026;-79
2023/09/11 12:25:24;;;;;;;4.28;3.97;;;25.20;99.90;;;;;;5165940;28;20027;-77
2023/09/11 12:27:56;;;;;;;3.88;3.58;;;24.80;99.90;;;;;;5164538;28;20031;-77
2023/09/11 12:30:27;;;;;;;10.13;3.35;;;24.80;99.90;;;;;;5165819;28;20494;-79
2023/09/11 12:32:58;;;;;;;4.50;3.28;;;24.70;99.90;;;;;;5165910;28;20060;-79
2023/09/11 12:35:34;;;;;;;3.60;3.00;;;24.80;99.90;;;;;;5165934;28;20126;-79
2023/09/11 12:38:11;;;;;;;3.95;3.33;;;25.00;99.90;;;;;;5169818;28;20033;-78
2023/09/11 12:40:42;;;;;;;5.35;3.17;;;25.30;99.90;;;;;;5169885;28;20477;-77
2023/09/11 12:43:14;;;;;;;4.97;4.68;;;25.30;99.90;;;;;;5169635;28;20030;-79
2023/09/11 12:45:45;;;;;;;5.75;5.25;;;25.30;99.90;;;;;;5169537;28;20026;-78
2023/09/11 12:48:17;;;;;;;5.95;3.85;;;25.10;99.90;;;;;;5169516;28;20057;-78
2023/09/11 12:50:48;;;;;;;4.57;4.25;;;24.90;99.90;;;;;;5167591;28;20058;-77
2023/09/11 12:53:20;;;;;;;6.78;3.85;;;25.10;99.90;;;;;;5169619;28;20027;-78
2023/09/11 12:55:51;;;;;;;5.38;4.32;;;25.30;99.90;;;;;;5168204;28;20026;-78
2023/09/11 12:58:22;;;;;;;5.72;5.32;;;25.40;99.90;;;;;;5168232;28;20025;-78
2023/09/11 13:00:53;;;;;;;5.38;4.88;;;25.50;99.90;;;;;;5167722;28;20027;-79
2023/09/11 13:03:23;;;;;;;6.80;6.32;;;25.60;99.90;;;;;;5169304;28;20053;-80
2023/09/11 13:05:54;;;;;;;6.40;5.95;;;25.70;99.90;;;;;;5169297;28;20026;-81
2023/09/11 13:08:29;;;;;;;6.28;5.78;;;25.80;99.90;;;;;;5169177;28;20102;-78
2023/09/11 13:10:59;;;;;;;5.68;5.18;;;25.70;99.90;;;;;;5167940;28;20406;-78
2023/09/11 13:13:30;;;;;;;5.63;5.20;;;25.80;99.90;;;;;;5169135;28;20027;-80
2023/09/11 13:16:03;;;;;;;5.50;5.00;;;26.10;99.90;;;;;;5169076;28;20068;-79
2023/09/11 13:18:33;;;;;;;4.78;4.53;;;26.00;99.90;;;;;;5167712;28;20038;-80
2023/09/11 13:21:05;;;;;;;5.40;4.90;;;26.00;99.90;;;;;;5168954;28;20038;-80
2023/09/11 13:23:36;;;;;;;5.03;4.53;;;25.60;99.90;;;;;;5168973;28;20375;-80
2023/09/11 13:26:06;;;;;;;5.00;4.70;;;25.60;99.90;;;;;;5168962;28;20033;-80
2023/09/11 13:28:37;;;;;;;5.65;5.25;;;25.80;99.90;;;;;;5169036;28;20373;-80